createdAt,value
2022-11-06T00:02:39.074Z,98083.00
2022-11-06T00:06:49.573Z,98083.00
2022-11-06T00:10:50.723Z,98088.00
2022-11-06T00:14:52.004Z,98083.00
2022-11-06T00:18:54.201Z,98074.00
2022-11-06T00:22:55.395Z,98075.00
2022-11-06T00:26:56.811Z,98075.00
2022-11-06T00:31:06.559Z,98054.00
2022-11-06T00:35:07.873Z,98052.00
2022-11-06T00:39:11.051Z,98043.00
2022-11-06T00:43:12.399Z,98056.00
2022-11-06T00:47:13.576Z,98049.00
2022-11-06T00:51:18.152Z,98051.00
2022-11-06T00:55:19.257Z,98057.00
2022-11-06T00:59:20.461Z,98057.00
2022-11-06T01:03:21.717Z,98046.00
2022-11-06T01:07:23.668Z,98040.00
2022-11-06T01:11:52.416Z,98035.00
2022-11-06T01:15:37.202Z,98036.00
2022-11-06T01:19:38.350Z,98038.00
2022-11-06T01:23:40.010Z,98041.00
2022-11-06T01:27:41.186Z,98052.00
2022-11-06T01:31:42.535Z,98043.00
2022-11-06T01:35:45.764Z,98038.00
2022-11-06T01:39:48.827Z,98051.00
2022-11-06T01:43:56.688Z,98041.00
2022-11-06T01:47:57.968Z,98040.00
2022-11-06T01:52:02.966Z,98060.00
2022-11-06T01:56:07.511Z,98039.00
2022-11-06T02:00:09.885Z,98032.00
2022-11-06T02:04:17.635Z,98038.00
2022-11-06T02:08:21.383Z,98033.00
2022-11-06T02:12:29.245Z,98035.00
2022-11-06T02:16:38.364Z,98013.00
2022-11-06T02:21:07.271Z,97999.00
2022-11-06T02:25:17.962Z,98001.00
2022-11-06T02:29:34.872Z,97995.00
2022-11-06T02:33:40.032Z,97988.00
2022-11-06T02:37:43.808Z,97994.00
2022-11-06T02:41:47.256Z,97991.00
2022-11-06T02:45:58.432Z,97988.00
2022-11-06T02:50:06.571Z,97973.00
2022-11-06T02:54:09.827Z,97972.00
2022-11-06T02:58:15.168Z,97981.00
2022-11-06T03:02:20.405Z,97979.00
2022-11-06T03:06:42.169Z,97983.00
2022-11-06T03:10:47.018Z,97981.00
2022-11-06T03:15:07.517Z,97978.00
2022-11-06T03:19:15.260Z,97985.00
2022-11-06T03:23:38.306Z,97994.00
2022-11-06T03:27:58.557Z,97986.00
2022-11-06T03:32:09.618Z,97969.00
2022-11-06T03:36:20.600Z,97974.00
2022-11-06T03:40:25.411Z,97977.00
2022-11-06T03:44:29.938Z,97965.00
2022-11-06T03:48:49.832Z,97962.00
2022-11-06T03:53:00.921Z,97970.00
2022-11-06T03:57:11.517Z,97959.00
2022-11-06T04:01:15.704Z,97955.00
2022-11-06T04:05:23.281Z,97960.00
2022-11-06T04:09:46.625Z,97952.00
2022-11-06T04:13:58.398Z,97949.00
2022-11-06T04:17:59.378Z,97968.00
2022-11-06T04:22:13.021Z,97965.00
2022-11-06T04:26:36.316Z,97826.00
2022-11-06T04:30:41.255Z,97940.00
2022-11-06T04:34:58.048Z,97945.00
2022-11-06T04:39:05.784Z,97955.00
2022-11-06T04:43:13.748Z,97953.00
2022-11-06T04:47:18.779Z,97951.00
2022-11-06T04:51:24.081Z,97961.00
2022-11-06T04:55:25.719Z,97951.00
2022-11-06T04:59:27.539Z,97952.00
2022-11-06T05:03:28.550Z,97955.00
2022-11-06T05:07:29.755Z,97967.00
2022-11-06T05:11:30.805Z,97971.00
2022-11-06T05:15:31.809Z,97975.00
2022-11-06T05:19:32.994Z,97976.00
2022-11-06T05:23:34.176Z,97963.00
2022-11-06T05:27:35.213Z,97958.00
2022-11-06T05:31:36.508Z,97942.00
2022-11-06T05:35:37.667Z,97938.00
2022-11-06T05:39:41.786Z,97928.00
2022-11-06T05:43:41.870Z,97928.00
2022-11-06T05:47:43.191Z,97921.00
2022-11-06T05:51:44.383Z,97934.00
2022-11-06T05:55:46.806Z,97917.00
2022-11-06T05:59:47.938Z,97919.00
2022-11-06T06:03:48.977Z,97921.00
2022-11-06T06:07:49.968Z,97911.00
2022-11-06T06:11:52.070Z,97905.00
2022-11-06T06:15:53.428Z,97900.00
2022-11-06T06:19:54.580Z,97884.00
2022-11-06T06:23:55.735Z,97899.00
2022-11-06T06:27:57.464Z,97893.00
2022-11-06T06:31:58.593Z,97889.00
2022-11-06T06:36:05.483Z,97876.00
2022-11-06T06:40:07.598Z,97864.00
2022-11-06T06:44:08.613Z,97864.00
2022-11-06T06:48:12.192Z,97860.00
2022-11-06T06:52:13.667Z,97860.00
2022-11-06T06:56:15.387Z,97854.00
2022-11-06T07:00:16.661Z,97859.00
2022-11-06T07:04:17.926Z,97858.00
2022-11-06T07:08:19.126Z,97864.00
2022-11-06T07:12:20.411Z,97864.00
2022-11-06T07:16:21.926Z,97856.00
2022-11-06T07:20:22.959Z,97860.00
2022-11-06T07:24:24.148Z,97847.00
2022-11-06T07:28:25.336Z,97858.00
2022-11-06T07:32:26.928Z,97854.00
2022-11-06T07:36:28.101Z,97864.00
2022-11-06T07:40:29.367Z,97870.00
2022-11-06T07:44:30.593Z,97861.00
2022-11-06T07:48:32.587Z,97853.00
2022-11-06T07:52:33.872Z,97864.00
2022-11-06T07:56:34.920Z,97859.00
2022-11-06T08:00:36.820Z,97364.00
2022-11-06T08:04:39.188Z,97853.00
2022-11-06T08:08:40.386Z,97860.00
2022-11-06T08:12:41.563Z,97862.00
2022-11-06T08:16:42.656Z,97864.00
2022-11-06T08:20:43.789Z,97869.00
2022-11-06T08:24:44.931Z,97867.00
2022-11-06T08:28:46.080Z,97870.00
2022-11-06T08:32:47.214Z,97859.00
2022-11-06T08:36:51.635Z,97869.00
2022-11-06T08:40:53.989Z,97860.00
2022-11-06T08:44:55.598Z,97783.00
2022-11-06T08:48:56.842Z,97838.00
2022-11-06T08:53:05.899Z,97840.00
2022-11-06T08:57:07.376Z,97820.00
2022-11-06T09:01:09.218Z,97823.00
2022-11-06T09:05:10.800Z,97817.00
2022-11-06T09:09:12.335Z,97814.00
2022-11-06T09:13:13.824Z,97812.00
2022-11-06T09:17:16.119Z,97797.00
2022-11-06T09:21:17.236Z,97805.00
2022-11-06T09:25:19.620Z,97806.00
2022-11-06T09:29:21.118Z,97796.00
2022-11-06T09:33:23.495Z,97804.00
2022-11-06T09:37:24.947Z,97783.00
2022-11-06T09:41:42.279Z,97778.00
2022-11-06T09:45:45.386Z,97769.00
2022-11-06T09:49:53.246Z,97752.00
2022-11-06T09:53:58.055Z,97760.00
2022-11-06T09:58:15.564Z,97757.00
2022-11-06T10:02:45.144Z,97749.00
2022-11-06T10:06:46.425Z,97750.00
2022-11-06T10:11:17.679Z,97751.00
2022-11-06T10:15:31.830Z,97741.00
2022-11-06T10:19:42.241Z,97738.00
2022-11-06T10:23:49.830Z,97729.00
2022-11-06T10:27:57.889Z,97730.00
2022-11-06T10:32:20.764Z,97728.00
2022-11-06T10:36:40.996Z,97719.00
2022-11-06T10:40:44.148Z,97718.00
2022-11-06T10:44:51.898Z,97716.00
2022-11-06T10:48:56.887Z,97705.00
2022-11-06T10:53:02.066Z,97706.00
2022-11-06T10:57:06.919Z,97697.00
2022-11-06T11:01:11.870Z,97698.00
2022-11-06T11:05:16.021Z,97694.00
2022-11-06T11:09:32.422Z,97674.00
2022-11-06T11:13:34.299Z,97673.00
2022-11-06T11:17:35.567Z,97564.00
2022-11-06T11:21:36.739Z,97638.00
2022-11-06T11:25:38.514Z,97621.00
2022-11-06T11:29:47.413Z,97630.00
2022-11-06T11:33:52.166Z,97628.00
2022-11-06T11:38:08.896Z,97606.00
2022-11-06T11:42:30.926Z,97611.00
2022-11-06T11:46:33.233Z,97592.00
2022-11-06T11:50:34.508Z,97578.00
2022-11-06T11:54:36.710Z,97573.00
2022-11-06T11:58:38.168Z,97574.00
2022-11-06T12:02:48.991Z,97556.00
2022-11-06T12:06:56.870Z,97554.00
2022-11-06T12:11:05.945Z,97538.00
2022-11-06T12:15:23.287Z,97521.00
2022-11-06T12:19:27.899Z,97510.00
2022-11-06T12:23:44.999Z,97497.00
2022-11-06T12:27:49.916Z,97500.00
2022-11-06T12:32:04.086Z,97501.00
2022-11-06T12:36:08.059Z,97501.00
2022-11-06T12:40:25.045Z,97493.00
2022-11-06T12:44:25.130Z,97477.00
2022-11-06T12:48:44.867Z,97484.00
2022-11-06T12:53:06.104Z,97480.00
2022-11-06T12:57:28.587Z,97466.00
2022-11-06T13:01:53.003Z,97466.00
2022-11-06T13:06:13.205Z,97482.00
2022-11-06T13:10:16.905Z,97441.00
2022-11-06T13:14:27.638Z,97418.00
2022-11-06T13:18:32.648Z,97446.00
2022-11-06T13:22:43.459Z,97451.00
2022-11-06T13:26:51.221Z,97425.00
2022-11-06T13:30:53.525Z,97423.00
2022-11-06T13:34:55.795Z,97420.00
2022-11-06T13:39:06.448Z,97418.00
2022-11-06T13:43:14.486Z,97418.00
2022-11-06T13:47:27.669Z,97403.00
2022-11-06T13:51:52.235Z,97422.00
2022-11-06T13:56:15.113Z,97413.00
2022-11-06T14:00:25.203Z,97386.00
2022-11-06T14:04:53.286Z,97392.00
2022-11-06T14:09:16.799Z,97384.00
2022-11-06T14:13:21.467Z,97392.00
2022-11-06T14:22:00.245Z,97372.00
2022-11-06T14:26:10.230Z,97362.00
2022-11-06T14:31:05.703Z,97359.00
2022-11-06T14:34:40.133Z,97378.00
2022-11-06T14:38:42.208Z,97356.00
2022-11-06T14:42:46.385Z,97356.00
2022-11-06T14:46:53.407Z,97362.00
2022-11-06T14:50:56.038Z,97366.00
2022-11-06T14:55:05.444Z,97369.00
2022-11-06T14:59:09.832Z,97371.00
2022-11-06T15:03:23.603Z,97385.00
2022-11-06T15:11:49.587Z,97380.00
2022-11-06T15:15:54.283Z,97383.00
2022-11-06T15:19:59.254Z,97380.00
2022-11-06T15:24:07.167Z,97387.00
2022-11-06T15:28:14.560Z,97362.00
2022-11-06T15:32:25.017Z,97329.00
2022-11-06T15:36:28.292Z,97290.00
2022-11-06T15:40:35.684Z,97340.00
2022-11-06T15:44:41.460Z,97346.00
2022-11-06T15:48:43.296Z,97339.00
2022-11-06T15:52:45.638Z,97343.00
2022-11-06T15:56:48.478Z,97341.00
2022-11-06T16:00:49.565Z,97343.00
2022-11-06T16:04:51.320Z,97328.00
2022-11-06T16:08:52.575Z,97316.00
2022-11-06T16:12:54.870Z,97307.00
2022-11-06T16:16:56.848Z,97310.00
2022-11-06T16:21:16.590Z,97298.00
2022-11-06T16:25:19.658Z,97325.00
2022-11-06T16:29:29.908Z,97339.00
2022-11-06T16:33:30.972Z,97306.00
2022-11-06T16:37:35.209Z,97296.00
2022-11-06T16:41:58.516Z,97296.00
2022-11-06T16:46:07.730Z,97281.00
2022-11-06T16:50:44.577Z,97290.00
2022-11-06T16:54:54.871Z,97301.00
2022-11-06T16:59:02.721Z,97309.00
2022-11-06T17:03:07.678Z,97326.00
2022-11-06T17:07:12.541Z,97332.00
2022-11-06T17:11:18.771Z,97332.00
2022-11-06T17:15:19.955Z,97349.00
2022-11-06T17:19:22.348Z,97334.00
2022-11-06T17:23:24.793Z,97342.00
2022-11-06T17:27:25.948Z,97339.00
2022-11-06T17:31:26.934Z,97329.00
2022-11-06T17:35:27.996Z,97319.00
2022-11-06T17:39:30.189Z,97305.00
2022-11-06T17:43:31.202Z,97308.00
2022-11-06T17:47:32.358Z,97296.00
2022-11-06T17:51:52.166Z,97260.00
2022-11-06T17:55:53.477Z,97287.00
2022-11-06T17:59:54.462Z,97271.00
2022-11-06T18:03:55.296Z,97290.00
2022-11-06T18:07:56.300Z,97292.00
2022-11-06T18:11:57.822Z,97285.00
2022-11-06T18:15:58.931Z,97282.00
2022-11-06T18:19:59.919Z,97264.00
2022-11-06T18:24:01.591Z,97237.00
2022-11-06T18:28:03.931Z,97255.00
2022-11-06T18:32:05.573Z,97284.00
2022-11-06T18:36:08.826Z,97286.00
2022-11-06T18:40:11.131Z,97323.00
2022-11-06T18:44:12.100Z,97349.00
2022-11-06T18:48:16.962Z,97336.00
2022-11-06T18:52:32.556Z,97346.00
2022-11-06T18:56:18.813Z,97319.00
2022-11-06T19:00:20.556Z,97329.00
2022-11-06T19:04:21.840Z,97321.00
2022-11-06T19:08:22.832Z,97324.00
2022-11-06T19:12:24.086Z,97314.00
2022-11-06T19:16:25.064Z,97304.00
2022-11-06T19:24:35.318Z,97290.00
2022-11-06T19:28:37.359Z,97306.00
2022-11-06T19:32:38.721Z,97316.00
2022-11-06T19:36:40.160Z,97314.00
2022-11-06T19:40:41.270Z,97311.00
2022-11-06T19:44:42.443Z,97308.00
2022-11-06T19:48:43.867Z,97322.00
2022-11-06T19:52:53.263Z,97321.00
2022-11-06T19:57:28.466Z,97312.00
2022-11-06T20:00:54.370Z,97308.00
2022-11-06T20:04:55.607Z,97321.00
2022-11-06T20:08:56.832Z,97319.00
2022-11-06T20:12:58.736Z,97313.00
2022-11-06T20:17:00.311Z,97319.00
2022-11-06T20:21:06.710Z,97318.00
2022-11-06T20:25:08.544Z,97329.00
2022-11-06T20:29:09.844Z,97321.00
2022-11-06T20:33:11.474Z,97334.00
2022-11-06T20:37:13.046Z,97357.00
2022-11-06T20:41:15.646Z,97329.00
2022-11-06T20:45:16.942Z,97340.00
2022-11-06T20:49:18.192Z,97356.00
2022-11-06T20:53:19.601Z,97347.00
2022-11-06T20:57:21.172Z,97352.00
2022-11-06T21:01:26.500Z,97362.00
2022-11-06T21:05:28.041Z,97360.00
2022-11-06T21:09:30.724Z,97378.00
2022-11-06T21:13:33.552Z,97370.00
2022-11-06T21:17:34.887Z,97377.00
2022-11-06T21:21:39.119Z,97389.00
2022-11-06T21:25:45.015Z,97386.00
2022-11-06T21:29:43.207Z,97367.00
2022-11-06T21:33:46.988Z,97392.00
2022-11-06T21:37:48.192Z,97381.00
2022-11-06T21:41:49.467Z,97371.00
2022-11-06T21:45:50.786Z,97363.00
2022-11-06T21:49:54.713Z,97378.00
2022-11-06T21:54:14.729Z,97382.00
2022-11-06T21:58:17.156Z,97413.00
2022-11-06T22:02:18.753Z,97416.00
2022-11-06T22:06:24.140Z,97400.00
2022-11-06T22:10:26.691Z,97412.00
2022-11-06T22:14:27.863Z,97418.00
2022-11-06T22:18:29.028Z,97406.00
2022-11-06T22:22:30.320Z,97413.00
2022-11-06T22:26:32.971Z,97411.00
2022-11-06T22:30:34.131Z,97419.00
2022-11-06T22:34:35.323Z,97427.00
2022-11-06T22:38:37.534Z,97424.00
2022-11-06T22:42:38.687Z,97415.00
2022-11-06T22:46:41.993Z,97425.00
2022-11-06T22:50:44.273Z,97423.00
2022-11-06T22:54:45.527Z,97442.00
2022-11-06T22:58:47.226Z,97425.00
2022-11-06T23:02:49.420Z,97440.00
2022-11-06T23:06:58.988Z,97453.00
2022-11-06T23:11:07.419Z,97461.00
2022-11-06T23:19:39.310Z,97462.00
2022-11-06T23:23:51.054Z,97458.00
2022-11-06T23:27:51.978Z,97459.00
2022-11-06T23:32:03.767Z,97451.00
2022-11-06T23:36:11.342Z,97463.00
2022-11-06T23:40:12.578Z,97446.00
2022-11-06T23:44:33.458Z,97456.00
2022-11-06T23:48:34.852Z,97457.00
2022-11-06T23:52:36.108Z,97460.00
2022-11-06T23:56:37.276Z,97481.00
